createdAt,value
2019-04-10T00:00:37.445Z,9.83
2019-04-10T00:03:08.326Z,9.27
2019-04-10T00:05:40.901Z,9.33
2019-04-10T00:08:12.757Z,8.93
2019-04-10T00:10:43.773Z,8.57
2019-04-10T00:13:14.547Z,8.57
2019-04-10T00:15:45.222Z,8.57
2019-04-10T00:18:16.031Z,7.73
2019-04-10T00:20:47.019Z,8.03
2019-04-10T00:23:17.725Z,8.23
2019-04-10T00:25:48.808Z,7.40
2019-04-10T00:28:19.613Z,8.17
2019-04-10T00:30:51.346Z,8.60
2019-04-10T00:33:22.877Z,8.97
2019-04-10T00:35:54.036Z,8.70
2019-04-10T00:38:24.794Z,8.60
2019-04-10T00:40:55.551Z,9.90
2019-04-10T00:43:26.675Z,9.90
2019-04-10T00:45:57.857Z,11.50
2019-04-10T00:48:28.745Z,10.10
2019-04-10T00:50:59.397Z,10.40
2019-04-10T00:53:30.122Z,9.90
2019-04-10T00:56:01.884Z,9.87
2019-04-10T00:58:32.814Z,9.63
2019-04-10T01:01:03.512Z,10.87
2019-04-10T01:03:43.696Z,10.43
2019-04-10T01:06:15.764Z,12.33
2019-04-10T01:08:48.914Z,11.03
2019-04-10T01:11:19.718Z,11.50
2019-04-10T01:13:51.609Z,11.37
2019-04-10T01:16:23.109Z,12.07
2019-04-10T01:18:53.979Z,12.97
2019-04-10T01:21:24.682Z,12.07
2019-04-10T01:23:55.397Z,11.77
2019-04-10T01:26:26.078Z,11.50
2019-04-10T01:28:57.620Z,10.60
2019-04-10T01:31:28.853Z,10.30
2019-04-10T01:33:59.598Z,11.20
2019-04-10T01:36:31.127Z,9.97
2019-04-10T01:39:02.225Z,10.17
2019-04-10T01:41:32.924Z,11.03
2019-04-10T01:44:03.905Z,12.07
2019-04-10T01:46:36.042Z,10.97
2019-04-10T01:49:07.203Z,11.00
2019-04-10T01:51:37.955Z,10.83
2019-04-10T01:54:09.062Z,10.60
2019-04-10T01:56:39.796Z,10.80
2019-04-10T01:59:11.775Z,12.20
2019-04-10T02:02:03.076Z,9.53
2019-04-10T02:04:35.286Z,10.00
2019-04-10T02:07:06.200Z,9.30
2019-04-10T02:09:40.406Z,10.60
2019-04-10T02:12:11.121Z,10.57
2019-04-10T02:14:42.564Z,11.40
2019-04-10T02:17:13.257Z,11.60
2019-04-10T02:19:43.887Z,10.70
2019-04-10T02:22:16.249Z,10.00
2019-04-10T02:24:47.261Z,9.77
2019-04-10T02:27:18.326Z,9.50
2019-04-10T02:29:50.047Z,8.70
2019-04-10T02:32:21.233Z,9.50
2019-04-10T02:34:53.179Z,10.03
2019-04-10T02:37:25.108Z,14.90
2019-04-10T02:40:00.321Z,19.03
2019-04-10T02:42:30.185Z,19.50
2019-04-10T02:45:02.248Z,17.97
2019-04-10T02:47:34.705Z,17.67
2019-04-10T02:50:10.408Z,13.87
2019-04-10T02:52:42.963Z,11.23
2019-04-10T02:55:14.439Z,10.73
2019-04-10T02:57:45.904Z,10.17
2019-04-10T03:00:18.112Z,10.23
2019-04-10T03:02:50.212Z,9.67
2019-04-10T03:05:23.709Z,9.63
2019-04-10T03:07:55.736Z,9.40
2019-04-10T03:10:38.287Z,10.50
2019-04-10T03:13:00.568Z,14.47
2019-04-10T03:15:31.691Z,22.40
2019-04-10T03:18:02.480Z,21.07
2019-04-10T03:20:34.183Z,25.77
2019-04-10T03:23:05.300Z,25.10
2019-04-10T03:25:37.098Z,64.83
2019-04-10T03:28:09.017Z,26.97
2019-04-10T03:30:41.518Z,21.50
2019-04-10T03:33:21.576Z,18.17
2019-04-10T03:35:51.438Z,18.27
2019-04-10T03:38:22.337Z,18.93
2019-04-10T03:40:53.456Z,21.90
2019-04-10T03:43:25.858Z,27.93
2019-04-10T03:45:57.118Z,23.50
2019-04-10T03:48:27.793Z,23.97
2019-04-10T03:50:58.734Z,27.20
2019-04-10T03:53:29.920Z,25.13
2019-04-10T03:56:01.166Z,21.63
2019-04-10T03:58:31.968Z,21.63
2019-04-10T04:01:02.837Z,18.50
2019-04-10T04:03:33.648Z,16.90
2019-04-10T04:06:04.430Z,15.90
2019-04-10T04:08:35.359Z,18.30
2019-04-10T04:11:07.171Z,19.23
2019-04-10T04:13:38.007Z,18.80
2019-04-10T04:16:08.893Z,16.53
2019-04-10T04:18:39.825Z,14.80
2019-04-10T04:21:10.534Z,16.13
2019-04-10T04:23:41.320Z,16.33
2019-04-10T04:26:14.835Z,17.20
2019-04-10T04:28:45.584Z,14.50
2019-04-10T04:31:16.259Z,14.37
2019-04-10T04:33:47.233Z,10.77
2019-04-10T04:36:18.277Z,11.47
2019-04-10T04:38:49.269Z,11.67
2019-04-10T04:41:20.175Z,10.63
2019-04-10T04:43:51.493Z,10.37
2019-04-10T04:46:22.267Z,10.77
2019-04-10T04:48:54.262Z,11.13
2019-04-10T04:51:25.981Z,11.10
2019-04-10T04:53:57.651Z,10.57
2019-04-10T04:56:28.749Z,10.53
2019-04-10T04:58:59.833Z,10.33
2019-04-10T05:01:31.749Z,11.20
2019-04-10T05:04:04.741Z,13.57
2019-04-10T05:06:35.811Z,14.00
2019-04-10T05:09:08.225Z,14.77
2019-04-10T05:11:41.143Z,15.50
2019-04-10T05:14:13.193Z,20.20
2019-04-10T05:16:44.198Z,18.20
2019-04-10T05:19:17.255Z,18.40
2019-04-10T05:21:49.849Z,19.73
2019-04-10T05:24:20.665Z,18.90
2019-04-10T05:26:51.483Z,19.47
2019-04-10T05:29:22.152Z,17.50
2019-04-10T05:31:53.181Z,16.43
2019-04-10T05:34:24.155Z,19.30
2019-04-10T05:36:54.807Z,17.90
2019-04-10T05:39:39.748Z,18.63
2019-04-10T05:42:02.830Z,18.03
2019-04-10T05:44:34.047Z,17.33
2019-04-10T05:47:05.377Z,19.43
2019-04-10T05:49:37.075Z,17.17
2019-04-10T05:52:08.283Z,15.63
2019-04-10T05:54:39.550Z,16.30
2019-04-10T05:57:10.480Z,16.07
2019-04-10T05:59:41.290Z,14.90
2019-04-10T06:02:12.132Z,13.30
2019-04-10T06:04:43.290Z,15.77
2019-04-10T06:07:14.114Z,13.50
2019-04-10T06:09:54.035Z,12.70
2019-04-10T06:12:18.147Z,13.47
2019-04-10T06:14:48.989Z,17.33
2019-04-10T06:17:20.582Z,12.47
2019-04-10T06:19:51.681Z,12.43
2019-04-10T06:22:22.895Z,11.37
2019-04-10T06:24:54.379Z,9.17
2019-04-10T06:27:26.203Z,8.70
2019-04-10T06:29:56.922Z,10.37
2019-04-10T06:32:27.692Z,10.13
2019-04-10T06:34:59.503Z,9.20
2019-04-10T06:37:30.480Z,8.60
2019-04-10T06:40:16.954Z,8.80
2019-04-10T06:42:47.551Z,7.90
2019-04-10T06:45:15.887Z,8.80
2019-04-10T06:47:46.660Z,8.80
2019-04-10T06:50:17.362Z,8.90
2019-04-10T06:52:49.044Z,8.27
2019-04-10T06:55:19.968Z,8.27
2019-04-10T06:57:55.878Z,7.60
2019-04-10T07:00:23.257Z,7.70
2019-04-10T07:02:54.660Z,8.40
2019-04-10T07:05:36.978Z,8.90
2019-04-10T07:08:09.163Z,8.47
2019-04-10T07:10:44.776Z,9.20
2019-04-10T07:13:07.057Z,8.10
2019-04-10T07:15:35.816Z,8.67
2019-04-10T07:18:10.333Z,7.73
2019-04-10T07:20:40.049Z,8.70
2019-04-10T07:23:14.117Z,8.00
2019-04-10T07:25:45.461Z,8.20
2019-04-10T07:28:15.664Z,8.63
2019-04-10T07:30:46.370Z,8.00
2019-04-10T07:33:19.198Z,7.50
2019-04-10T07:35:50.070Z,8.50
2019-04-10T07:38:21.350Z,7.83
2019-04-10T07:40:52.538Z,8.47
2019-04-10T07:43:27.151Z,7.03
2019-04-10T07:45:56.925Z,7.77
2019-04-10T07:48:29.337Z,7.13
2019-04-10T07:51:00.622Z,6.70
2019-04-10T07:53:31.384Z,7.00
2019-04-10T07:56:06.827Z,6.77
2019-04-10T07:58:35.443Z,6.53
2019-04-10T08:01:06.564Z,7.07
2019-04-10T08:03:39.586Z,6.63
2019-04-10T08:06:11.079Z,6.90
2019-04-10T08:08:42.648Z,8.47
2019-04-10T08:11:13.343Z,6.30
2019-04-10T08:13:44.884Z,5.87
2019-04-10T08:16:15.574Z,6.47
2019-04-10T08:18:46.207Z,6.07
2019-04-10T08:21:17.742Z,6.60
2019-04-10T08:23:48.601Z,6.23
2019-04-10T08:26:19.219Z,6.63
2019-04-10T08:28:49.855Z,5.83
2019-04-10T08:31:21.212Z,6.17
2019-04-10T08:33:53.075Z,5.40
2019-04-10T08:36:23.806Z,5.60
2019-04-10T08:38:54.979Z,6.00
2019-04-10T08:41:26.840Z,5.50
2019-04-10T08:44:02.506Z,5.20
2019-04-10T08:46:33.707Z,5.87
2019-04-10T08:49:05.631Z,5.43
2019-04-10T08:51:36.886Z,5.43
2019-04-10T08:54:07.941Z,5.33
2019-04-10T08:56:38.941Z,5.23
2019-04-10T08:59:09.766Z,5.37
2019-04-10T09:01:40.355Z,5.37
2019-04-10T09:04:11.085Z,5.00
2019-04-10T09:06:41.869Z,5.47
2019-04-10T09:09:13.159Z,4.77
2019-04-10T09:11:45.075Z,5.47
2019-04-10T09:14:17.422Z,5.03
2019-04-10T09:16:48.963Z,4.87
2019-04-10T09:19:20.441Z,4.57
2019-04-10T09:21:52.045Z,5.60
2019-04-10T09:24:23.775Z,4.77
2019-04-10T09:26:54.958Z,6.97
2019-04-10T09:29:25.877Z,6.57
2019-04-10T09:31:58.118Z,5.60
2019-04-10T09:34:28.827Z,4.60
2019-04-10T09:36:59.934Z,4.43
2019-04-10T09:39:31.793Z,4.80
2019-04-10T09:42:03.400Z,4.33
2019-04-10T09:44:34.391Z,3.90
2019-04-10T09:47:05.555Z,4.83
2019-04-10T09:49:41.961Z,4.27
2019-04-10T09:52:12.350Z,4.57
2019-04-10T09:54:46.728Z,3.97
2019-04-10T09:57:20.207Z,4.60
2019-04-10T09:59:51.018Z,4.50
2019-04-10T10:02:23.418Z,4.03
2019-04-10T10:04:54.086Z,5.30
2019-04-10T10:07:24.930Z,4.20
2019-04-10T10:09:58.180Z,4.20
2019-04-10T10:12:28.059Z,5.23
2019-04-10T10:14:58.853Z,4.97
2019-04-10T10:17:32.878Z,4.50
2019-04-10T10:20:05.734Z,4.63
2019-04-10T10:22:39.049Z,4.60
2019-04-10T10:25:13.147Z,4.40
2019-04-10T10:27:52.861Z,7.23
2019-04-10T10:30:23.620Z,5.00
2019-04-10T10:32:54.701Z,5.20
2019-04-10T10:35:27.733Z,4.90
2019-04-10T10:37:58.929Z,4.90
2019-04-10T10:40:33.860Z,4.90
2019-04-10T10:43:04.637Z,4.60
2019-04-10T10:45:36.575Z,6.50
2019-04-10T10:48:08.635Z,5.27
2019-04-10T10:50:39.863Z,4.90
2019-04-10T10:53:10.692Z,5.20
2019-04-10T10:55:42.064Z,5.63
2019-04-10T10:58:13.317Z,5.07
2019-04-10T11:00:44.525Z,6.03
2019-04-10T11:03:16.160Z,5.73
2019-04-10T11:05:46.914Z,5.73
2019-04-10T11:08:17.738Z,5.90
2019-04-10T11:13:22.148Z,5.40
2019-04-10T11:15:53.336Z,5.30
2019-04-10T11:18:24.762Z,6.67
2019-04-10T11:21:02.762Z,6.70
2019-04-10T11:23:30.561Z,5.90
2019-04-10T11:26:02.188Z,6.40
2019-04-10T11:28:33.840Z,6.90
2019-04-10T11:31:05.226Z,6.10
2019-04-10T11:33:37.316Z,6.30
2019-04-10T11:36:09.930Z,5.47
2019-04-10T11:38:42.892Z,7.27
2019-04-10T11:41:14.861Z,6.57
2019-04-10T11:43:46.642Z,8.30
2019-04-10T11:46:17.793Z,7.60
2019-04-10T11:48:49.314Z,8.03
2019-04-10T11:51:21.025Z,8.03
2019-04-10T11:53:55.985Z,8.27
2019-04-10T11:56:26.096Z,8.83
2019-04-10T11:58:59.866Z,10.83
2019-04-10T12:01:34.229Z,10.60
2019-04-10T12:04:08.619Z,11.13
2019-04-10T12:06:39.753Z,11.40
2019-04-10T12:09:51.252Z,17.87
2019-04-10T12:11:44.728Z,12.83
2019-04-10T12:14:15.628Z,12.07
2019-04-10T12:16:47.342Z,12.30
2019-04-10T12:19:19.321Z,11.20
2019-04-10T12:21:50.385Z,7.33
2019-04-10T12:24:21.798Z,6.73
2019-04-10T12:26:52.577Z,7.17
2019-04-10T12:29:23.215Z,7.73
2019-04-10T12:31:54.570Z,6.60
2019-04-10T12:34:26.434Z,6.77
2019-04-10T12:36:57.183Z,6.77
2019-04-10T12:39:28.052Z,5.80
2019-04-10T12:41:59.635Z,5.03
2019-04-10T12:44:30.319Z,5.33
2019-04-10T12:47:01.644Z,5.60
2019-04-10T12:49:32.541Z,5.03
2019-04-10T12:52:03.195Z,5.00
2019-04-10T12:54:33.949Z,4.50
2019-04-10T12:57:04.670Z,5.30
2019-04-10T12:59:35.510Z,5.00
2019-04-10T13:02:06.090Z,6.00
2019-04-10T13:04:36.675Z,6.53
2019-04-10T13:07:07.512Z,5.97
2019-04-10T13:09:38.235Z,5.37
2019-04-10T13:12:09.103Z,6.50
2019-04-10T13:14:39.938Z,5.70
2019-04-10T13:17:12.277Z,5.80
2019-04-10T13:19:43.141Z,5.67
2019-04-10T13:22:13.942Z,5.67
2019-04-10T13:24:45.827Z,4.83
2019-04-10T13:27:16.809Z,5.00
2019-04-10T13:29:47.394Z,4.47
2019-04-10T13:32:18.307Z,5.00
2019-04-10T13:34:49.433Z,5.33
2019-04-10T13:37:20.112Z,4.97
2019-04-10T13:39:52.038Z,5.30
2019-04-10T13:42:23.154Z,5.60
2019-04-10T13:44:55.752Z,4.07
2019-04-10T13:47:30.459Z,4.20
2019-04-10T13:50:02.386Z,4.23
2019-04-10T13:52:38.582Z,4.43
2019-04-10T13:55:11.694Z,4.10
2019-04-10T13:57:44.703Z,4.77
2019-04-10T14:00:19.604Z,5.20
2019-04-10T14:02:52.077Z,8.30
2019-04-10T14:05:24.021Z,6.73
2019-04-10T14:07:55.115Z,7.37
2019-04-10T14:10:28.363Z,7.10
2019-04-10T14:12:59.796Z,6.60
2019-04-10T14:15:33.799Z,6.60
2019-04-10T14:18:06.315Z,6.40
2019-04-10T14:20:37.590Z,5.57
2019-04-10T14:23:10.478Z,7.93
2019-04-10T14:25:42.792Z,6.00
2019-04-10T14:28:14.300Z,6.27
2019-04-10T14:30:47.304Z,6.40
2019-04-10T14:33:19.115Z,7.20
2019-04-10T14:35:50.234Z,7.27
2019-04-10T14:38:21.202Z,7.10
2019-04-10T14:40:53.487Z,7.73
2019-04-10T14:43:24.972Z,8.03
2019-04-10T14:45:55.969Z,9.03
2019-04-10T14:48:27.923Z,7.10
2019-04-10T14:50:59.817Z,7.20
2019-04-10T14:53:31.181Z,7.17
2019-04-10T14:56:02.191Z,7.37
2019-04-10T14:58:34.318Z,7.73
2019-04-10T15:01:08.419Z,7.73
2019-04-10T15:03:38.758Z,6.93
2019-04-10T15:06:10.363Z,10.37
2019-04-10T15:08:41.848Z,6.90
2019-04-10T15:11:12.644Z,7.63
2019-04-10T15:13:43.229Z,7.07
2019-04-10T15:16:14.773Z,6.83
2019-04-10T15:18:45.851Z,6.93
2019-04-10T15:21:16.694Z,7.73
2019-04-10T15:23:47.437Z,9.37
2019-04-10T15:26:18.097Z,9.03
2019-04-10T15:28:49.870Z,8.20
2019-04-10T15:31:21.514Z,8.53
2019-04-10T15:33:52.463Z,7.47
2019-04-10T15:36:25.022Z,6.73
2019-04-10T15:38:55.900Z,6.37
2019-04-10T15:41:27.389Z,6.10
2019-04-10T15:43:59.415Z,6.73
2019-04-10T15:46:30.198Z,6.43
2019-04-10T15:49:02.795Z,6.07
2019-04-10T15:51:33.584Z,7.10
2019-04-10T15:54:05.497Z,11.27
2019-04-10T15:56:36.280Z,6.43
2019-04-10T15:59:08.039Z,7.30
2019-04-10T16:01:41.353Z,6.80
2019-04-10T16:04:12.293Z,7.60
2019-04-10T16:06:43.038Z,8.63
2019-04-10T16:09:16.863Z,8.00
2019-04-10T16:11:54.255Z,7.83
2019-04-10T16:14:27.638Z,7.60
2019-04-10T16:17:02.143Z,7.57
2019-04-10T16:19:51.322Z,9.10
2019-04-10T16:22:27.638Z,8.37
2019-04-10T16:25:03.239Z,9.53
2019-04-10T16:27:35.671Z,10.27
2019-04-10T16:30:12.312Z,10.50
2019-04-10T16:32:43.941Z,9.57
2019-04-10T16:35:15.727Z,8.90
2019-04-10T16:37:47.478Z,8.30
2019-04-10T16:40:18.818Z,7.23
2019-04-10T16:42:50.801Z,7.83
2019-04-10T16:45:24.554Z,7.70
2019-04-10T16:48:01.012Z,7.40
2019-04-10T16:50:31.712Z,7.30
2019-04-10T16:53:05.558Z,7.50
2019-04-10T16:55:36.678Z,7.63
2019-04-10T16:58:10.235Z,7.80
2019-04-10T17:00:41.794Z,8.90
2019-04-10T17:03:15.940Z,8.67
2019-04-10T17:05:47.914Z,8.57
2019-04-10T17:08:19.630Z,9.10
2019-04-10T17:10:52.549Z,9.10
2019-04-10T17:13:24.560Z,12.60
2019-04-10T17:15:55.677Z,14.37
2019-04-10T17:18:27.465Z,14.80
2019-04-10T17:20:58.364Z,13.53
2019-04-10T17:23:30.218Z,13.27
2019-04-10T17:26:02.627Z,14.03
2019-04-10T17:28:34.774Z,13.73
2019-04-10T17:31:09.142Z,13.10
2019-04-10T17:33:41.865Z,14.50
2019-04-10T17:36:14.772Z,11.43
2019-04-10T17:38:49.033Z,12.63
2019-04-10T17:41:26.044Z,13.30
2019-04-10T17:43:58.269Z,12.03
2019-04-10T17:46:33.423Z,13.03
2019-04-10T17:49:08.808Z,13.43
2019-04-10T17:51:39.960Z,13.10
2019-04-10T17:54:12.309Z,11.97
2019-04-10T17:56:46.322Z,12.70
2019-04-10T17:59:18.363Z,11.57
2019-04-10T18:01:57.132Z,13.47
2019-04-10T18:04:33.784Z,12.70
2019-04-10T18:07:05.981Z,12.30
2019-04-10T18:09:36.883Z,13.53
2019-04-10T18:12:12.222Z,13.07
2019-04-10T18:14:44.129Z,12.73
2019-04-10T18:17:15.032Z,14.10
2019-04-10T18:19:46.167Z,14.93
2019-04-10T18:22:17.165Z,14.07
2019-04-10T18:24:48.248Z,15.27
2019-04-10T18:27:18.969Z,15.23
2019-04-10T18:29:49.776Z,14.17
2019-04-10T18:32:21.362Z,13.50
2019-04-10T18:34:52.153Z,13.87
2019-04-10T18:37:25.148Z,14.27
2019-04-10T18:39:55.279Z,17.13
2019-04-10T18:42:26.707Z,20.10
2019-04-10T18:44:57.624Z,21.37
2019-04-10T18:47:31.862Z,23.20
2019-04-10T18:50:01.251Z,24.20
2019-04-10T18:52:35.034Z,26.17
2019-04-10T18:55:06.142Z,25.43
2019-04-10T18:57:36.860Z,23.77
2019-04-10T19:00:27.511Z,23.50
2019-04-10T19:03:17.101Z,22.77
2019-04-10T19:05:52.495Z,22.27
2019-04-10T19:08:24.000Z,22.10
2019-04-10T19:11:08.119Z,21.43
2019-04-10T19:13:28.579Z,47.77
2019-04-10T19:15:59.490Z,20.93
2019-04-10T19:18:30.104Z,19.87
2019-04-10T19:21:01.332Z,19.43
2019-04-10T19:23:33.100Z,19.80
2019-04-10T19:26:05.148Z,18.40
2019-04-10T19:28:38.469Z,18.53
2019-04-10T19:31:19.673Z,18.07
2019-04-10T19:33:49.345Z,18.17
2019-04-10T19:36:20.228Z,16.97
2019-04-10T19:38:51.737Z,18.40
2019-04-10T19:41:29.607Z,15.77
2019-04-10T19:43:55.114Z,16.00
2019-04-10T19:46:25.958Z,15.70
2019-04-10T19:48:57.676Z,16.23
2019-04-10T19:51:28.559Z,16.13
2019-04-10T19:54:00.672Z,15.43
2019-04-10T19:56:34.920Z,15.13
2019-04-10T19:59:06.307Z,14.63
2019-04-10T20:01:38.021Z,14.73
2019-04-10T20:04:08.879Z,15.03
2019-04-10T20:06:40.604Z,14.30
2019-04-10T20:09:12.479Z,13.60
2019-04-10T20:11:48.639Z,15.37
2019-04-10T20:14:17.983Z,14.03
2019-04-10T20:16:49.373Z,13.23
2019-04-10T20:19:20.335Z,13.50
2019-04-10T20:21:51.058Z,14.87
2019-04-10T20:24:22.822Z,15.23
2019-04-10T20:26:53.887Z,16.00
2019-04-10T20:29:24.602Z,18.63
2019-04-10T20:31:57.438Z,17.03
2019-04-10T20:34:28.234Z,16.87
2019-04-10T20:37:02.644Z,17.67
2019-04-10T20:39:31.522Z,15.67
2019-04-10T20:42:02.665Z,16.37
2019-04-10T20:44:34.508Z,15.70
2019-04-10T20:47:05.291Z,16.00
2019-04-10T20:49:36.433Z,14.97
2019-04-10T20:52:08.363Z,15.47
2019-04-10T20:54:39.202Z,16.00
2019-04-10T20:57:10.854Z,15.70
2019-04-10T20:59:42.536Z,16.10
2019-04-10T21:02:13.795Z,16.23
2019-04-10T21:04:54.720Z,16.53
2019-04-10T21:07:17.279Z,16.90
2019-04-10T21:09:48.217Z,17.37
2019-04-10T21:12:21.015Z,15.70
2019-04-10T21:14:51.149Z,17.77
2019-04-10T21:17:22.661Z,18.47
2019-04-10T21:19:53.774Z,17.97
2019-04-10T21:22:24.507Z,18.03
2019-04-10T21:24:56.200Z,17.43
2019-04-10T21:27:27.966Z,17.63
2019-04-10T21:30:15.812Z,17.57
2019-04-10T21:33:05.758Z,18.37
2019-04-10T21:35:41.612Z,17.77
2019-04-10T21:38:13.139Z,18.13
2019-04-10T21:40:43.951Z,18.13
2019-04-10T21:43:14.853Z,17.33
2019-04-10T21:45:45.621Z,17.37
2019-04-10T21:48:16.764Z,17.87
2019-04-10T21:50:47.561Z,17.20
2019-04-10T21:53:18.296Z,16.77
2019-04-10T21:55:49.045Z,16.87
2019-04-10T21:58:19.938Z,18.07
2019-04-10T22:01:01.485Z,17.80
2019-04-10T22:03:33.682Z,19.03
2019-04-10T22:06:16.304Z,19.00
2019-04-10T22:09:04.123Z,21.00
2019-04-10T22:11:34.748Z,20.83
2019-04-10T22:14:05.499Z,20.47
2019-04-10T22:16:36.268Z,21.37
2019-04-10T22:19:07.108Z,23.40
2019-04-10T22:21:37.818Z,26.93
2019-04-10T22:24:09.466Z,27.43
2019-04-10T22:26:40.343Z,30.63
2019-04-10T22:29:12.077Z,26.70
2019-04-10T22:31:43.790Z,26.13
2019-04-10T22:34:14.681Z,22.30
2019-04-10T22:36:45.425Z,21.87
2019-04-10T22:39:16.855Z,19.10
2019-04-10T22:41:48.352Z,18.83
2019-04-10T22:44:19.713Z,21.00
2019-04-10T22:46:50.602Z,20.70
2019-04-10T22:49:22.208Z,19.13
2019-04-10T22:51:53.837Z,18.53
2019-04-10T22:54:24.756Z,20.30
2019-04-10T22:56:56.559Z,21.07
2019-04-10T22:59:28.470Z,21.97
2019-04-10T23:02:06.684Z,22.20
2019-04-10T23:04:32.798Z,20.83
2019-04-10T23:07:03.967Z,20.43
2019-04-10T23:09:34.688Z,18.93
2019-04-10T23:12:05.778Z,16.93
2019-04-10T23:14:36.633Z,16.80
2019-04-10T23:17:08.460Z,15.67
2019-04-10T23:19:40.354Z,15.77
2019-04-10T23:22:11.814Z,16.83
2019-04-10T23:24:43.476Z,18.07
2019-04-10T23:27:14.452Z,19.63
2019-04-10T23:29:46.507Z,22.37
2019-04-10T23:32:17.333Z,22.53
2019-04-10T23:34:49.207Z,22.87
2019-04-10T23:37:20.518Z,21.20
2019-04-10T23:39:52.428Z,20.53
2019-04-10T23:42:23.433Z,20.17
2019-04-10T23:44:54.060Z,18.63
2019-04-10T23:47:24.800Z,17.90
2019-04-10T23:49:55.620Z,18.83
2019-04-10T23:52:27.545Z,18.03
2019-04-10T23:54:58.346Z,17.33
2019-04-10T23:57:29.452Z,18.37
